sensor_id;sensor_type;location;lat;lon;timestamp;P1;durP1;ratioP1;P2;durP2;ratioP2
63975;SDS011;50167;47.958;21.780;2022-08-18T00:02:17;11.90;;;9.50;;
63975;SDS011;50167;47.958;21.780;2022-08-18T00:04:48;16.02;;;10.35;;
63975;SDS011;50167;47.958;21.780;2022-08-18T00:07:17;15.58;;;11.80;;
63975;SDS011;50167;47.958;21.780;2022-08-18T00:09:45;12.88;;;10.53;;
63975;SDS011;50167;47.958;21.780;2022-08-18T00:14:51;11.08;;;9.33;;
63975;SDS011;50167;47.958;21.780;2022-08-18T00:17:19;14.40;;;8.85;;
63975;SDS011;50167;47.958;21.780;2022-08-18T00:19:45;10.70;;;9.60;;
63975;SDS011;50167;47.958;21.780;2022-08-18T00:22:13;17.12;;;9.53;;
63975;SDS011;50167;47.958;21.780;2022-08-18T00:24:44;11.10;;;9.83;;
63975;SDS011;50167;47.958;21.780;2022-08-18T00:27:13;12.25;;;9.95;;
63975;SDS011;50167;47.958;21.780;2022-08-18T00:29:44;16.52;;;11.20;;
63975;SDS011;50167;47.958;21.780;2022-08-18T00:32:15;13.40;;;11.25;;
63975;SDS011;50167;47.958;21.780;2022-08-18T00:34:48;15.48;;;11.33;;
63975;SDS011;50167;47.958;21.780;2022-08-18T00:37:16;21.10;;;10.32;;
63975;SDS011;50167;47.958;21.780;2022-08-18T00:39:42;11.78;;;10.08;;
63975;SDS011;50167;47.958;21.780;2022-08-18T00:42:27;19.82;;;10.95;;
63975;SDS011;50167;47.958;21.780;2022-08-18T00:44:51;14.73;;;10.43;;
63975;SDS011;50167;47.958;21.780;2022-08-18T00:47:19;10.35;;;9.35;;
63975;SDS011;50167;47.958;21.780;2022-08-18T00:49:45;13.00;;;9.83;;
63975;SDS011;50167;47.958;21.780;2022-08-18T00:52:15;13.98;;;10.68;;
63975;SDS011;50167;47.958;21.780;2022-08-18T00:54:43;12.23;;;9.08;;
63975;SDS011;50167;47.958;21.780;2022-08-18T00:57:12;10.93;;;9.73;;
63975;SDS011;50167;47.958;21.780;2022-08-18T01:02:27;15.43;;;9.35;;
63975;SDS011;50167;47.958;21.780;2022-08-18T01:04:56;11.22;;;10.13;;
63975;SDS011;50167;47.958;21.780;2022-08-18T01:07:38;10.55;;;9.48;;
63975;SDS011;50167;47.958;21.780;2022-08-18T01:10:06;13.83;;;9.13;;
63975;SDS011;50167;47.958;21.780;2022-08-18T01:12:33;10.80;;;9.18;;
63975;SDS011;50167;47.958;21.780;2022-08-18T01:14:59;14.03;;;9.98;;
63975;SDS011;50167;47.958;21.780;2022-08-18T01:17:26;12.03;;;9.70;;
63975;SDS011;50167;47.958;21.780;2022-08-18T01:20:23;9.83;;;8.93;;
63975;SDS011;50167;47.958;21.780;2022-08-18T01:23:07;12.50;;;9.47;;
63975;SDS011;50167;47.958;21.780;2022-08-18T01:25:31;14.18;;;9.73;;
63975;SDS011;50167;47.958;21.780;2022-08-18T01:28:16;14.38;;;10.08;;
63975;SDS011;50167;47.958;21.780;2022-08-18T01:30:45;12.35;;;9.98;;
63975;SDS011;50167;47.958;21.780;2022-08-18T01:33:15;14.75;;;10.98;;
63975;SDS011;50167;47.958;21.780;2022-08-18T01:35:44;14.45;;;11.57;;
63975;SDS011;50167;47.958;21.780;2022-08-18T01:38:15;12.07;;;10.58;;
63975;SDS011;50167;47.958;21.780;2022-08-18T01:40:43;14.33;;;10.47;;
63975;SDS011;50167;47.958;21.780;2022-08-18T01:43:11;11.68;;;10.48;;
63975;SDS011;50167;47.958;21.780;2022-08-18T01:45:39;11.68;;;10.00;;
63975;SDS011;50167;47.958;21.780;2022-08-18T01:48:08;11.30;;;10.20;;
63975;SDS011;50167;47.958;21.780;2022-08-18T01:50:35;12.23;;;9.40;;
63975;SDS011;50167;47.958;21.780;2022-08-18T01:53:04;13.40;;;9.83;;
63975;SDS011;50167;47.958;21.780;2022-08-18T01:55:32;13.35;;;10.35;;
63975;SDS011;50167;47.958;21.780;2022-08-18T01:58:01;13.50;;;12.13;;
63975;SDS011;50167;47.958;21.780;2022-08-18T02:00:29;15.40;;;11.43;;
63975;SDS011;50167;47.958;21.780;2022-08-18T02:02:57;12.78;;;11.20;;
63975;SDS011;50167;47.958;21.780;2022-08-18T02:05:33;12.25;;;10.98;;
63975;SDS011;50167;47.958;21.780;2022-08-18T02:08:02;15.93;;;10.63;;
63975;SDS011;50167;47.958;21.780;2022-08-18T02:10:30;12.33;;;10.15;;
63975;SDS011;50167;47.958;21.780;2022-08-18T02:12:57;15.45;;;10.30;;
63975;SDS011;50167;47.958;21.780;2022-08-18T02:15:23;11.70;;;10.58;;
63975;SDS011;50167;47.958;21.780;2022-08-18T02:17:49;11.90;;;9.30;;
63975;SDS011;50167;47.958;21.780;2022-08-18T02:20:16;20.00;;;10.67;;
63975;SDS011;50167;47.958;21.780;2022-08-18T02:22:44;11.00;;;9.78;;
63975;SDS011;50167;47.958;21.780;2022-08-18T02:25:12;12.07;;;10.00;;
63975;SDS011;50167;47.958;21.780;2022-08-18T02:27:40;14.45;;;10.80;;
63975;SDS011;50167;47.958;21.780;2022-08-18T02:30:07;13.75;;;11.35;;
63975;SDS011;50167;47.958;21.780;2022-08-18T02:32:37;16.83;;;12.17;;
63975;SDS011;50167;47.958;21.780;2022-08-18T02:35:04;11.63;;;10.43;;
63975;SDS011;50167;47.958;21.780;2022-08-18T02:37:32;15.70;;;12.17;;
63975;SDS011;50167;47.958;21.780;2022-08-18T02:39:59;16.93;;;13.53;;
63975;SDS011;50167;47.958;21.780;2022-08-18T02:42:25;19.77;;;14.30;;
63975;SDS011;50167;47.958;21.780;2022-08-18T02:44:52;13.80;;;11.12;;
63975;SDS011;50167;47.958;21.780;2022-08-18T02:47:19;17.80;;;12.82;;
63975;SDS011;50167;47.958;21.780;2022-08-18T02:49:46;15.53;;;11.43;;
63975;SDS011;50167;47.958;21.780;2022-08-18T02:52:13;12.50;;;11.12;;
63975;SDS011;50167;47.958;21.780;2022-08-18T02:54:41;10.78;;;9.58;;
63975;SDS011;50167;47.958;21.780;2022-08-18T02:57:08;12.05;;;10.85;;
63975;SDS011;50167;47.958;21.780;2022-08-18T02:59:37;12.35;;;10.90;;
63975;SDS011;50167;47.958;21.780;2022-08-18T03:02:05;14.50;;;11.27;;
63975;SDS011;50167;47.958;21.780;2022-08-18T03:04:33;13.72;;;11.33;;
63975;SDS011;50167;47.958;21.780;2022-08-18T03:07:01;12.50;;;11.03;;
63975;SDS011;50167;47.958;21.780;2022-08-18T03:09:30;11.43;;;9.85;;
63975;SDS011;50167;47.958;21.780;2022-08-18T03:11:58;13.03;;;11.08;;
63975;SDS011;50167;47.958;21.780;2022-08-18T03:14:25;14.10;;;11.55;;
63975;SDS011;50167;47.958;21.780;2022-08-18T03:16:52;14.87;;;12.05;;
63975;SDS011;50167;47.958;21.780;2022-08-18T03:19:18;12.25;;;11.00;;
63975;SDS011;50167;47.958;21.780;2022-08-18T03:21:46;12.30;;;11.07;;
63975;SDS011;50167;47.958;21.780;2022-08-18T03:29:23;13.47;;;12.07;;
63975;SDS011;50167;47.958;21.780;2022-08-18T03:31:55;15.47;;;12.80;;
63975;SDS011;50167;47.958;21.780;2022-08-18T03:34:21;12.93;;;11.40;;
63975;SDS011;50167;47.958;21.780;2022-08-18T03:36:48;18.05;;;13.60;;
63975;SDS011;50167;47.958;21.780;2022-08-18T03:39:16;20.10;;;13.65;;
63975;SDS011;50167;47.958;21.780;2022-08-18T03:41:44;17.47;;;13.70;;
63975;SDS011;50167;47.958;21.780;2022-08-18T03:44:12;19.83;;;13.83;;
63975;SDS011;50167;47.958;21.780;2022-08-18T03:46:40;15.78;;;13.25;;
63975;SDS011;50167;47.958;21.780;2022-08-18T03:49:09;16.52;;;14.05;;
63975;SDS011;50167;47.958;21.780;2022-08-18T03:51:36;23.23;;;13.90;;
63975;SDS011;50167;47.958;21.780;2022-08-18T03:54:05;19.92;;;14.43;;
63975;SDS011;50167;47.958;21.780;2022-08-18T03:56:33;29.33;;;13.77;;
63975;SDS011;50167;47.958;21.780;2022-08-18T03:59:04;20.77;;;14.95;;
63975;SDS011;50167;47.958;21.780;2022-08-18T04:01:37;15.32;;;13.83;;
63975;SDS011;50167;47.958;21.780;2022-08-18T04:04:08;19.07;;;12.97;;
63975;SDS011;50167;47.958;21.780;2022-08-18T04:06:54;11.17;;;9.93;;
63975;SDS011;50167;47.958;21.780;2022-08-18T04:09:25;12.53;;;11.25;;
63975;SDS011;50167;47.958;21.780;2022-08-18T04:11:55;11.38;;;10.20;;
63975;SDS011;50167;47.958;21.780;2022-08-18T04:14:23;11.88;;;10.78;;
63975;SDS011;50167;47.958;21.780;2022-08-18T04:16:56;14.90;;;12.47;;
63975;SDS011;50167;47.958;21.780;2022-08-18T04:19:23;29.87;;;13.30;;
63975;SDS011;50167;47.958;21.780;2022-08-18T04:21:50;15.98;;;14.15;;
63975;SDS011;50167;47.958;21.780;2022-08-18T04:24:18;17.77;;;13.55;;
63975;SDS011;50167;47.958;21.780;2022-08-18T04:26:45;15.20;;;13.48;;
63975;SDS011;50167;47.958;21.780;2022-08-18T04:29:13;14.10;;;12.28;;
63975;SDS011;50167;47.958;21.780;2022-08-18T04:31:43;20.17;;;15.98;;
63975;SDS011;50167;47.958;21.780;2022-08-18T04:34:10;23.35;;;16.60;;
63975;SDS011;50167;47.958;21.780;2022-08-18T04:36:36;23.87;;;16.55;;
63975;SDS011;50167;47.958;21.780;2022-08-18T04:39:04;21.62;;;17.12;;
63975;SDS011;50167;47.958;21.780;2022-08-18T04:44:01;20.57;;;16.73;;
63975;SDS011;50167;47.958;21.780;2022-08-18T04:46:31;18.30;;;16.37;;
63975;SDS011;50167;47.958;21.780;2022-08-18T04:49:04;26.25;;;18.92;;
63975;SDS011;50167;47.958;21.780;2022-08-18T04:51:31;23.60;;;18.95;;
63975;SDS011;50167;47.958;21.780;2022-08-18T04:53:57;32.90;;;18.85;;
63975;SDS011;50167;47.958;21.780;2022-08-18T04:56:30;27.90;;;18.30;;
63975;SDS011;50167;47.958;21.780;2022-08-18T04:59:00;17.12;;;15.28;;
63975;SDS011;50167;47.958;21.780;2022-08-18T05:01:34;21.45;;;16.32;;
63975;SDS011;50167;47.958;21.780;2022-08-18T05:04:04;25.43;;;18.05;;
63975;SDS011;50167;47.958;21.780;2022-08-18T05:06:31;17.52;;;15.48;;
63975;SDS011;50167;47.958;21.780;2022-08-18T05:08:58;21.55;;;16.50;;
63975;SDS011;50167;47.958;21.780;2022-08-18T05:11:29;24.23;;;16.45;;
63975;SDS011;50167;47.958;21.780;2022-08-18T05:14:00;22.80;;;20.10;;
63975;SDS011;50167;47.958;21.780;2022-08-18T05:16:29;27.50;;;19.45;;
63975;SDS011;50167;47.958;21.780;2022-08-18T05:19:04;18.45;;;16.40;;
63975;SDS011;50167;47.958;21.780;2022-08-18T05:21:33;23.25;;;17.15;;
63975;SDS011;50167;47.958;21.780;2022-08-18T05:24:01;19.75;;;16.93;;
63975;SDS011;50167;47.958;21.780;2022-08-18T05:26:28;22.52;;;18.42;;
63975;SDS011;50167;47.958;21.780;2022-08-18T05:28:56;25.20;;;16.25;;
63975;SDS011;50167;47.958;21.780;2022-08-18T05:31:24;19.98;;;16.30;;
63975;SDS011;50167;47.958;21.780;2022-08-18T05:33:53;19.92;;;14.73;;
63975;SDS011;50167;47.958;21.780;2022-08-18T05:44:47;22.58;;;15.30;;
63975;SDS011;50167;47.958;21.780;2022-08-18T05:47:16;19.10;;;14.35;;
63975;SDS011;50167;47.958;21.780;2022-08-18T05:49:54;15.20;;;13.58;;
63975;SDS011;50167;47.958;21.780;2022-08-18T05:55:09;14.73;;;10.82;;
63975;SDS011;50167;47.958;21.780;2022-08-18T05:58:11;16.35;;;11.90;;
63975;SDS011;50167;47.958;21.780;2022-08-18T06:01:00;16.67;;;13.22;;
63975;SDS011;50167;47.958;21.780;2022-08-18T06:03:35;18.37;;;11.05;;
63975;SDS011;50167;47.958;21.780;2022-08-18T06:06:19;12.65;;;11.28;;
63975;SDS011;50167;47.958;21.780;2022-08-18T06:08:51;13.38;;;10.70;;
63975;SDS011;50167;47.958;21.780;2022-08-18T06:11:23;13.58;;;11.48;;
63975;SDS011;50167;47.958;21.780;2022-08-18T06:13:50;17.35;;;12.13;;
63975;SDS011;50167;47.958;21.780;2022-08-18T06:16:25;13.08;;;10.53;;
63975;SDS011;50167;47.958;21.780;2022-08-18T06:19:43;20.80;;;11.33;;
63975;SDS011;50167;47.958;21.780;2022-08-18T06:22:38;15.55;;;11.12;;
63975;SDS011;50167;47.958;21.780;2022-08-18T06:25:19;15.25;;;10.15;;
63975;SDS011;50167;47.958;21.780;2022-08-18T06:28:05;28.80;;;12.20;;
63975;SDS011;50167;47.958;21.780;2022-08-18T06:33:50;19.10;;;11.60;;
63975;SDS011;50167;47.958;21.780;2022-08-18T06:36:40;15.03;;;10.72;;
63975;SDS011;50167;47.958;21.780;2022-08-18T06:39:31;19.48;;;10.75;;
63975;SDS011;50167;47.958;21.780;2022-08-18T06:42:06;12.30;;;10.98;;
63975;SDS011;50167;47.958;21.780;2022-08-18T06:44:35;15.00;;;9.60;;
63975;SDS011;50167;47.958;21.780;2022-08-18T06:50:20;15.60;;;8.40;;
63975;SDS011;50167;47.958;21.780;2022-08-18T06:52:54;12.55;;;9.05;;
63975;SDS011;50167;47.958;21.780;2022-08-18T06:58:28;8.95;;;8.00;;
63975;SDS011;50167;47.958;21.780;2022-08-18T07:00:55;11.05;;;8.65;;
63975;SDS011;50167;47.958;21.780;2022-08-18T07:06:07;8.58;;;7.62;;
63975;SDS011;50167;47.958;21.780;2022-08-18T07:08:52;18.10;;;8.88;;
63975;SDS011;50167;47.958;21.780;2022-08-18T07:11:29;13.25;;;8.38;;
63975;SDS011;50167;47.958;21.780;2022-08-18T07:14:05;13.43;;;9.08;;
63975;SDS011;50167;47.958;21.780;2022-08-18T07:16:46;13.55;;;9.00;;
63975;SDS011;50167;47.958;21.780;2022-08-18T07:19:15;12.53;;;8.63;;
63975;SDS011;50167;47.958;21.780;2022-08-18T07:21:45;10.13;;;7.92;;
63975;SDS011;50167;47.958;21.780;2022-08-18T07:24:37;13.20;;;7.78;;
63975;SDS011;50167;47.958;21.780;2022-08-18T07:27:09;11.08;;;7.35;;
63975;SDS011;50167;47.958;21.780;2022-08-18T07:29:57;8.15;;;7.35;;
63975;SDS011;50167;47.958;21.780;2022-08-18T07:32:50;11.20;;;7.05;;
63975;SDS011;50167;47.958;21.780;2022-08-18T07:35:17;10.20;;;8.70;;
63975;SDS011;50167;47.958;21.780;2022-08-18T07:37:52;8.20;;;7.40;;
63975;SDS011;50167;47.958;21.780;2022-08-18T07:40:34;12.35;;;8.05;;
63975;SDS011;50167;47.958;21.780;2022-08-18T07:45:54;10.63;;;7.55;;
63975;SDS011;50167;47.958;21.780;2022-08-18T07:48:30;9.68;;;8.43;;
63975;SDS011;50167;47.958;21.780;2022-08-18T07:51:21;12.07;;;8.20;;
63975;SDS011;50167;47.958;21.780;2022-08-18T07:56:34;11.68;;;9.15;;
63975;SDS011;50167;47.958;21.780;2022-08-18T08:05:08;11.48;;;7.92;;
63975;SDS011;50167;47.958;21.780;2022-08-18T08:08:24;11.00;;;7.37;;
63975;SDS011;50167;47.958;21.780;2022-08-18T08:11:03;17.87;;;7.78;;
63975;SDS011;50167;47.958;21.780;2022-08-18T08:16:50;10.68;;;7.53;;
63975;SDS011;50167;47.958;21.780;2022-08-18T08:21:59;12.55;;;7.00;;
63975;SDS011;50167;47.958;21.780;2022-08-18T08:24:41;18.35;;;6.53;;
63975;SDS011;50167;47.958;21.780;2022-08-18T08:27:26;11.15;;;7.45;;
63975;SDS011;50167;47.958;21.780;2022-08-18T08:30:14;14.20;;;6.87;;
63975;SDS011;50167;47.958;21.780;2022-08-18T08:36:05;13.45;;;7.20;;
63975;SDS011;50167;47.958;21.780;2022-08-18T08:38:48;9.00;;;6.53;;
63975;SDS011;50167;47.958;21.780;2022-08-18T08:41:23;10.82;;;7.30;;
63975;SDS011;50167;47.958;21.780;2022-08-18T08:44:08;10.53;;;7.45;;
63975;SDS011;50167;47.958;21.780;2022-08-18T08:46:46;11.53;;;6.33;;
63975;SDS011;50167;47.958;21.780;2022-08-18T08:49:27;12.58;;;6.70;;
63975;SDS011;50167;47.958;21.780;2022-08-18T08:52:06;12.47;;;6.80;;
63975;SDS011;50167;47.958;21.780;2022-08-18T08:54:59;9.63;;;5.92;;
63975;SDS011;50167;47.958;21.780;2022-08-18T08:57:49;13.15;;;7.10;;
63975;SDS011;50167;47.958;21.780;2022-08-18T09:00:23;11.70;;;6.72;;
63975;SDS011;50167;47.958;21.780;2022-08-18T09:05:51;7.92;;;6.50;;
63975;SDS011;50167;47.958;21.780;2022-08-18T09:11:25;11.48;;;6.78;;
63975;SDS011;50167;47.958;21.780;2022-08-18T09:23:07;13.08;;;6.62;;
63975;SDS011;50167;47.958;21.780;2022-08-18T09:42:25;16.55;;;7.03;;
63975;SDS011;50167;47.958;21.780;2022-08-18T09:49:55;13.25;;;6.08;;
63975;SDS011;50167;47.958;21.780;2022-08-18T09:55:06;12.05;;;6.58;;
63975;SDS011;50167;47.958;21.780;2022-08-18T09:57:42;10.55;;;5.95;;
63975;SDS011;50167;47.958;21.780;2022-08-18T10:07:50;15.72;;;6.12;;
63975;SDS011;50167;47.958;21.780;2022-08-18T10:10:36;8.35;;;6.83;;
63975;SDS011;50167;47.958;21.780;2022-08-18T10:13:56;10.65;;;6.60;;
63975;SDS011;50167;47.958;21.780;2022-08-18T10:16:21;14.10;;;6.15;;
63975;SDS011;50167;47.958;21.780;2022-08-18T10:18:59;9.53;;;6.33;;
63975;SDS011;50167;47.958;21.780;2022-08-18T10:24:36;8.05;;;5.55;;
63975;SDS011;50167;47.958;21.780;2022-08-18T10:27:35;7.97;;;6.15;;
63975;SDS011;50167;47.958;21.780;2022-08-18T10:33:03;9.13;;;5.53;;
63975;SDS011;50167;47.958;21.780;2022-08-18T10:40:41;8.28;;;5.42;;
63975;SDS011;50167;47.958;21.780;2022-08-18T10:43:13;19.20;;;6.70;;
63975;SDS011;50167;47.958;21.780;2022-08-18T10:45:50;10.08;;;5.60;;
63975;SDS011;50167;47.958;21.780;2022-08-18T10:56:48;9.25;;;5.00;;
63975;SDS011;50167;47.958;21.780;2022-08-18T11:04:55;6.90;;;4.97;;
63975;SDS011;50167;47.958;21.780;2022-08-18T11:07:24;7.20;;;4.42;;
63975;SDS011;50167;47.958;21.780;2022-08-18T11:09:55;7.22;;;5.00;;
63975;SDS011;50167;47.958;21.780;2022-08-18T11:12:39;23.70;;;7.22;;
63975;SDS011;50167;47.958;21.780;2022-08-18T11:15:44;10.60;;;5.47;;
63975;SDS011;50167;47.958;21.780;2022-08-18T11:20:51;8.88;;;5.17;;
63975;SDS011;50167;47.958;21.780;2022-08-18T11:23:18;7.17;;;5.75;;
63975;SDS011;50167;47.958;21.780;2022-08-18T11:25:44;13.90;;;5.05;;
63975;SDS011;50167;47.958;21.780;2022-08-18T11:28:18;9.13;;;5.65;;
63975;SDS011;50167;47.958;21.780;2022-08-18T11:30:49;9.88;;;5.12;;
63975;SDS011;50167;47.958;21.780;2022-08-18T11:33:18;8.45;;;5.65;;
63975;SDS011;50167;47.958;21.780;2022-08-18T11:38:16;9.43;;;5.17;;
63975;SDS011;50167;47.958;21.780;2022-08-18T11:40:44;11.43;;;6.05;;
63975;SDS011;50167;47.958;21.780;2022-08-18T11:45:56;7.20;;;5.47;;
63975;SDS011;50167;47.958;21.780;2022-08-18T11:48:48;8.13;;;5.22;;
63975;SDS011;50167;47.958;21.780;2022-08-18T11:51:10;8.70;;;5.45;;
63975;SDS011;50167;47.958;21.780;2022-08-18T11:54:18;17.00;;;5.62;;
63975;SDS011;50167;47.958;21.780;2022-08-18T11:56:46;12.35;;;4.80;;
63975;SDS011;50167;47.958;21.780;2022-08-18T12:02:00;13.13;;;5.22;;
63975;SDS011;50167;47.958;21.780;2022-08-18T12:04:36;11.15;;;5.05;;
63975;SDS011;50167;47.958;21.780;2022-08-18T12:07:08;10.95;;;4.70;;
63975;SDS011;50167;47.958;21.780;2022-08-18T12:12:47;6.80;;;4.35;;
63975;SDS011;50167;47.958;21.780;2022-08-18T12:17:51;15.93;;;5.30;;
63975;SDS011;50167;47.958;21.780;2022-08-18T12:20:18;10.85;;;3.90;;
63975;SDS011;50167;47.958;21.780;2022-08-18T12:22:45;12.40;;;4.80;;
63975;SDS011;50167;47.958;21.780;2022-08-18T12:25:14;19.20;;;4.77;;
63975;SDS011;50167;47.958;21.780;2022-08-18T12:27:44;9.85;;;5.30;;
63975;SDS011;50167;47.958;21.780;2022-08-18T12:30:11;8.65;;;4.33;;
63975;SDS011;50167;47.958;21.780;2022-08-18T12:32:37;6.80;;;4.53;;
63975;SDS011;50167;47.958;21.780;2022-08-18T12:35:04;9.00;;;5.42;;
63975;SDS011;50167;47.958;21.780;2022-08-18T12:37:35;7.92;;;4.67;;
63975;SDS011;50167;47.958;21.780;2022-08-18T12:40:05;11.88;;;4.25;;
63975;SDS011;50167;47.958;21.780;2022-08-18T12:42:32;14.53;;;5.25;;
63975;SDS011;50167;47.958;21.780;2022-08-18T12:44:59;8.08;;;4.90;;
63975;SDS011;50167;47.958;21.780;2022-08-18T12:47:25;8.53;;;4.90;;
63975;SDS011;50167;47.958;21.780;2022-08-18T12:49:52;18.10;;;5.20;;
63975;SDS011;50167;47.958;21.780;2022-08-18T12:52:18;9.50;;;5.10;;
63975;SDS011;50167;47.958;21.780;2022-08-18T12:54:46;16.17;;;5.03;;
63975;SDS011;50167;47.958;21.780;2022-08-18T12:57:17;10.15;;;5.10;;
63975;SDS011;50167;47.958;21.780;2022-08-18T12:59:49;8.25;;;4.83;;
63975;SDS011;50167;47.958;21.780;2022-08-18T13:02:15;5.97;;;4.50;;
63975;SDS011;50167;47.958;21.780;2022-08-18T13:04:42;5.70;;;4.90;;
63975;SDS011;50167;47.958;21.780;2022-08-18T13:07:10;10.10;;;4.45;;
63975;SDS011;50167;47.958;21.780;2022-08-18T13:09:38;12.70;;;4.87;;
63975;SDS011;50167;47.958;21.780;2022-08-18T13:12:06;12.28;;;4.95;;
63975;SDS011;50167;47.958;21.780;2022-08-18T13:14:34;6.87;;;4.62;;
63975;SDS011;50167;47.958;21.780;2022-08-18T13:17:00;10.48;;;4.20;;
63975;SDS011;50167;47.958;21.780;2022-08-18T13:21:54;19.70;;;4.85;;
63975;SDS011;50167;47.958;21.780;2022-08-18T13:24:21;7.30;;;4.30;;
63975;SDS011;50167;47.958;21.780;2022-08-18T13:26:47;19.30;;;4.90;;
63975;SDS011;50167;47.958;21.780;2022-08-18T13:29:15;6.90;;;4.05;;
63975;SDS011;50167;47.958;21.780;2022-08-18T13:31:42;4.53;;;4.12;;
63975;SDS011;50167;47.958;21.780;2022-08-18T13:34:10;8.85;;;4.47;;
63975;SDS011;50167;47.958;21.780;2022-08-18T13:36:38;9.63;;;4.37;;
63975;SDS011;50167;47.958;21.780;2022-08-18T13:39:13;6.65;;;4.03;;
63975;SDS011;50167;47.958;21.780;2022-08-18T13:41:42;7.55;;;4.37;;
63975;SDS011;50167;47.958;21.780;2022-08-18T13:44:12;10.08;;;4.37;;
63975;SDS011;50167;47.958;21.780;2022-08-18T13:46:41;7.95;;;4.20;;
63975;SDS011;50167;47.958;21.780;2022-08-18T13:49:14;7.28;;;4.10;;
63975;SDS011;50167;47.958;21.780;2022-08-18T13:51:47;25.17;;;4.67;;
63975;SDS011;50167;47.958;21.780;2022-08-18T13:54:17;9.18;;;4.10;;
63975;SDS011;50167;47.958;21.780;2022-08-18T13:56:49;11.28;;;3.83;;
63975;SDS011;50167;47.958;21.780;2022-08-18T13:59:17;9.25;;;3.77;;
63975;SDS011;50167;47.958;21.780;2022-08-18T14:01:46;8.13;;;3.60;;
63975;SDS011;50167;47.958;21.780;2022-08-18T14:04:14;8.38;;;3.92;;
63975;SDS011;50167;47.958;21.780;2022-08-18T14:06:40;12.33;;;3.72;;
63975;SDS011;50167;47.958;21.780;2022-08-18T14:09:07;8.63;;;3.60;;
63975;SDS011;50167;47.958;21.780;2022-08-18T14:11:34;5.58;;;3.92;;
63975;SDS011;50167;47.958;21.780;2022-08-18T14:16:30;9.08;;;3.72;;
63975;SDS011;50167;47.958;21.780;2022-08-18T14:18:57;9.48;;;4.15;;
63975;SDS011;50167;47.958;21.780;2022-08-18T14:21:46;16.00;;;4.33;;
63975;SDS011;50167;47.958;21.780;2022-08-18T14:24:34;7.78;;;4.08;;
63975;SDS011;50167;47.958;21.780;2022-08-18T14:27:24;5.62;;;3.95;;
63975;SDS011;50167;47.958;21.780;2022-08-18T14:30:07;9.53;;;4.08;;
63975;SDS011;50167;47.958;21.780;2022-08-18T14:32:33;4.65;;;2.87;;
63975;SDS011;50167;47.958;21.780;2022-08-18T14:35:00;11.65;;;4.95;;
63975;SDS011;50167;47.958;21.780;2022-08-18T14:37:30;8.48;;;3.55;;
63975;SDS011;50167;47.958;21.780;2022-08-18T14:39:56;7.47;;;4.17;;
63975;SDS011;50167;47.958;21.780;2022-08-18T14:42:23;6.22;;;4.12;;
63975;SDS011;50167;47.958;21.780;2022-08-18T14:44:49;9.63;;;3.87;;
63975;SDS011;50167;47.958;21.780;2022-08-18T14:47:15;5.55;;;3.47;;
63975;SDS011;50167;47.958;21.780;2022-08-18T14:49:42;4.15;;;3.37;;
63975;SDS011;50167;47.958;21.780;2022-08-18T14:52:10;5.10;;;3.37;;
63975;SDS011;50167;47.958;21.780;2022-08-18T14:54:37;6.37;;;3.92;;
63975;SDS011;50167;47.958;21.780;2022-08-18T14:57:03;9.00;;;3.83;;
63975;SDS011;50167;47.958;21.780;2022-08-18T14:59:32;6.03;;;4.03;;
63975;SDS011;50167;47.958;21.780;2022-08-18T15:01:58;8.00;;;4.10;;
63975;SDS011;50167;47.958;21.780;2022-08-18T15:04:24;4.97;;;4.05;;
63975;SDS011;50167;47.958;21.780;2022-08-18T15:06:52;7.50;;;4.37;;
63975;SDS011;50167;47.958;21.780;2022-08-18T15:09:18;6.37;;;4.10;;
63975;SDS011;50167;47.958;21.780;2022-08-18T15:11:44;18.95;;;4.40;;
63975;SDS011;50167;47.958;21.780;2022-08-18T15:14:10;13.45;;;3.70;;
63975;SDS011;50167;47.958;21.780;2022-08-18T15:16:36;10.72;;;3.92;;
63975;SDS011;50167;47.958;21.780;2022-08-18T15:19:02;5.40;;;3.90;;
63975;SDS011;50167;47.958;21.780;2022-08-18T15:21:29;7.97;;;4.58;;
63975;SDS011;50167;47.958;21.780;2022-08-18T15:24:14;7.78;;;4.08;;
63975;SDS011;50167;47.958;21.780;2022-08-18T15:26:59;7.70;;;3.95;;
63975;SDS011;50167;47.958;21.780;2022-08-18T15:29:27;7.55;;;4.08;;
63975;SDS011;50167;47.958;21.780;2022-08-18T15:31:54;6.30;;;3.90;;
63975;SDS011;50167;47.958;21.780;2022-08-18T15:34:20;7.40;;;3.60;;
63975;SDS011;50167;47.958;21.780;2022-08-18T15:36:46;11.55;;;4.55;;
63975;SDS011;50167;47.958;21.780;2022-08-18T15:39:14;7.70;;;3.80;;
63975;SDS011;50167;47.958;21.780;2022-08-18T15:41:42;7.05;;;4.35;;
63975;SDS011;50167;47.958;21.780;2022-08-18T15:44:12;8.65;;;4.12;;
63975;SDS011;50167;47.958;21.780;2022-08-18T15:46:40;10.00;;;4.15;;
63975;SDS011;50167;47.958;21.780;2022-08-18T15:49:06;8.25;;;5.53;;
63975;SDS011;50167;47.958;21.780;2022-08-18T15:51:33;8.13;;;4.67;;
63975;SDS011;50167;47.958;21.780;2022-08-18T15:54:01;9.23;;;4.83;;
63975;SDS011;50167;47.958;21.780;2022-08-18T15:56:27;7.95;;;5.10;;
63975;SDS011;50167;47.958;21.780;2022-08-18T15:58:54;8.23;;;4.83;;
63975;SDS011;50167;47.958;21.780;2022-08-18T16:01:21;19.70;;;5.75;;
63975;SDS011;50167;47.958;21.780;2022-08-18T16:03:49;9.05;;;5.17;;
63975;SDS011;50167;47.958;21.780;2022-08-18T16:06:20;11.18;;;4.55;;
63975;SDS011;50167;47.958;21.780;2022-08-18T16:08:51;6.85;;;4.53;;
63975;SDS011;50167;47.958;21.780;2022-08-18T16:11:18;7.60;;;4.80;;
63975;SDS011;50167;47.958;21.780;2022-08-18T16:13:49;7.67;;;4.65;;
63975;SDS011;50167;47.958;21.780;2022-08-18T16:16:18;7.20;;;4.65;;
63975;SDS011;50167;47.958;21.780;2022-08-18T16:18:48;10.40;;;5.42;;
63975;SDS011;50167;47.958;21.780;2022-08-18T16:21:16;5.20;;;4.35;;
63975;SDS011;50167;47.958;21.780;2022-08-18T16:23:45;7.95;;;5.42;;
63975;SDS011;50167;47.958;21.780;2022-08-18T16:41:02;8.73;;;4.80;;
63975;SDS011;50167;47.958;21.780;2022-08-18T16:43:33;9.15;;;5.40;;
63975;SDS011;50167;47.958;21.780;2022-08-18T16:46:03;11.60;;;5.50;;
63975;SDS011;50167;47.958;21.780;2022-08-18T16:48:31;7.25;;;5.45;;
63975;SDS011;50167;47.958;21.780;2022-08-18T16:50:58;12.03;;;5.95;;
63975;SDS011;50167;47.958;21.780;2022-08-18T16:53:24;11.73;;;5.90;;
63975;SDS011;50167;47.958;21.780;2022-08-18T16:55:51;7.30;;;6.03;;
63975;SDS011;50167;47.958;21.780;2022-08-18T16:58:17;10.32;;;6.12;;
63975;SDS011;50167;47.958;21.780;2022-08-18T17:01:01;18.25;;;7.45;;
63975;SDS011;50167;47.958;21.780;2022-08-18T17:03:47;29.10;;;6.67;;
63975;SDS011;50167;47.958;21.780;2022-08-18T17:06:32;52.50;;;7.60;;
63975;SDS011;50167;47.958;21.780;2022-08-18T17:09:00;33.00;;;7.62;;
63975;SDS011;50167;47.958;21.780;2022-08-18T17:11:27;25.57;;;6.62;;
63975;SDS011;50167;47.958;21.780;2022-08-18T17:13:55;17.48;;;6.97;;
63975;SDS011;50167;47.958;21.780;2022-08-18T17:16:26;17.25;;;6.60;;
63975;SDS011;50167;47.958;21.780;2022-08-18T17:18:53;17.48;;;6.90;;
63975;SDS011;50167;47.958;21.780;2022-08-18T17:21:23;16.65;;;7.97;;
63975;SDS011;50167;47.958;21.780;2022-08-18T17:23:52;15.93;;;7.10;;
63975;SDS011;50167;47.958;21.780;2022-08-18T17:29:02;27.40;;;7.62;;
63975;SDS011;50167;47.958;21.780;2022-08-18T17:31:45;23.42;;;8.73;;
63975;SDS011;50167;47.958;21.780;2022-08-18T17:34:15;22.90;;;7.58;;
63975;SDS011;50167;47.958;21.780;2022-08-18T17:36:52;21.25;;;7.42;;